Stavanger, Norway

11:48 AM CEST on October 20, 2014 (GMT +0200)
Sola | Change Station
CLOSE
Current Station
Airport
Location: Stavanger,
Elevation: 30 ft
Nearby Weather Stations

Elev 30 ft 58.88 °N, 5.64 °E | Updated 28 minutes ago

Light Drizzle
Light Drizzle
54 °F
Feels Like 54 °F
N
16
Wind Variable Wind from West

Today
High -- | Low -- °F
--% Chance of Precip.
Yesterday
High -- | Low -- °F
Precip. -- in
8:25 AM 6:17 PM
Waning Crescent, 12% visible
Pressure 29.53 in
Visibility 5.6 miles
Clouds Few 700 ft
Mostly Cloudy 1100 ft
Dew Point 52 °F
Humidity 94%
Rainfall 0.00 in
Snow Depth Not available.
UV 1 out of 12
Pollen Not available.
Air Quality Not available.
Flu Activity Not available.
METAR ENZV 200920Z 27014KT 9000 -DZ FEW007 BKN011 12/11 Q1000 TEMPO BKN008

More Conditions Fewer Conditions

Pressure 29.53 in
Visibility 5.6 miles
Clouds Few 700 ft
Mostly Cloudy 1100 ft
Dew Point 52 °F
Humidity 94%
Rainfall 0.00 in
Snow Depth Not available.
UV 1 out of 12
Pollen Not available.
Air Quality Not available.
Flu Activity Not available.
METAR ENZV 200920Z 27014KT 9000 -DZ FEW007 BKN011 12/11 Q1000 TEMPO BKN008

More Conditions Fewer Conditions

10-Day Weather Forecast

Almanac

Astronomy

Oct. 20, 2014 Rise Set
Actual Time 8:25 AM CEST 6:17 PM CEST
Civil Twilight 7:44 AM CEST 6:59 PM CEST
Nautical Twilight 6:57 AM CEST 7:45 PM CEST
Astronomical Twilight 6:10 AM CEST 8:32 PM CEST
Moon 4:14 AM CEST 5:10 PM CEST
Length of Visible Light 11h 14m
Length of Day
9h 52m
Tomorrow will be 5m 4s shorter.
Waning Crescent, 12% of the Moon is Illuminated
Today
Waning Crescent
Oct 23
New
Oct 30
First Quarter
Nov 6
Full
Nov 14
Last Quarter

Yesterday's Extremes

Country Highs Country Lows

Community

WunderPhotos

Upload Photos

1,763,325 photos uploaded!

Nearby

Snow Depth

Not available.

Earthquake Activity

City Distance Mag. Time & Date
No recent earthquake activity has been reported nearby.
Minimum magnitude displayed is 2.5.

Coastal Water Temperatures

Place Temperature
No Stations Reporting

Nearby Weather Stations